Time;durP1;ratioP1;P1;durP2;ratioP2;P2;SDS_P1;SDS_P2;PMS_P1;PMS_P2;Temp;Humidity;BMP_temperature;BMP_pressure;BME280_temperature;BME280_humidity;BME280_pressure;Samples;Min_cycle;Max_cycle;Signal;HPM_P1;HPM_P2
2023/10/08 03:33:22;;;;;;;3.95;2.55;;;11.10;99.90;;;;;;4994080;28;20280;-65
2023/10/08 03:35:52;;;;;;;3.70;2.53;;;11.10;99.90;;;;;;5002621;28;20682;-65
2023/10/08 03:38:22;;;;;;;2.90;1.98;;;11.10;99.90;;;;;;4997323;28;20214;-65
2023/10/08 03:40:50;;;;;;;4.70;2.60;;;11.10;99.90;;;;;;5005264;28;20241;-65
2023/10/08 03:43:24;;;;;;;4.30;2.55;;;11.00;99.90;;;;;;4998942;28;20257;-65
2023/10/08 03:45:53;;;;;;;3.25;2.40;;;11.00;99.90;;;;;;4999910;28;20200;-65
2023/10/08 03:48:22;;;;;;;3.35;1.95;;;11.00;99.90;;;;;;4994706;28;20257;-65
2023/10/08 03:50:56;;;;;;;4.25;2.50;;;10.90;99.90;;;;;;4994183;28;20286;-65
2023/10/08 03:53:24;;;;;;;3.90;2.70;;;10.90;99.90;;;;;;4996806;28;20214;-68
2023/10/08 03:55:52;;;;;;;2.47;2.17;;;10.90;99.90;;;;;;5001641;28;20711;-64
2023/10/08 03:58:27;;;;;;;2.60;1.60;;;10.90;99.90;;;;;;4994325;28;20233;-65
2023/10/08 04:01:08;;;;;;;2.72;2.00;;;10.90;99.90;;;;;;4992977;28;20230;-65
2023/10/08 04:03:57;;;;;;;3.60;2.38;;;10.80;99.90;;;;;;4994314;28;20304;-65
2023/10/08 04:06:29;;;;;;;3.05;2.45;;;10.80;99.90;;;;;;4990302;28;20210;-65
2023/10/08 04:09:04;;;;;;;2.88;2.20;;;10.80;99.90;;;;;;4993230;28;20202;-65
2023/10/08 04:11:35;;;;;;;4.45;2.25;;;10.80;99.90;;;;;;4993968;28;20227;-65
2023/10/08 04:14:02;;;;;;;5.40;3.55;;;10.70;99.90;;;;;;4993907;28;20213;-65
2023/10/08 04:16:29;;;;;;;3.30;2.72;;;10.70;99.90;;;;;;4993443;28;20207;-65
2023/10/08 04:19:03;;;;;;;3.20;2.55;;;10.70;99.90;;;;;;4993096;28;20242;-65
2023/10/08 04:21:33;;;;;;;3.08;2.17;;;10.70;99.90;;;;;;4993768;28;20226;-65
2023/10/08 04:24:03;;;;;;;5.32;2.80;;;10.60;99.90;;;;;;4993716;28;20217;-65
2023/10/08 04:26:31;;;;;;;4.10;1.98;;;10.60;99.90;;;;;;4993227;28;20678;-65
2023/10/08 04:29:02;;;;;;;5.15;2.72;;;10.60;99.90;;;;;;4993529;28;20294;-65
2023/10/08 04:31:30;;;;;;;6.75;2.70;;;10.60;99.90;;;;;;4993845;28;20245;-65
2023/10/08 04:34:00;;;;;;;4.55;3.40;;;10.50;99.90;;;;;;5009919;28;20210;-65
2023/10/08 04:36:27;;;;;;;3.10;2.55;;;10.50;99.90;;;;;;5010765;28;20261;-65
2023/10/08 04:38:54;;;;;;;2.65;2.13;;;10.50;99.90;;;;;;5009324;28;20205;-65
2023/10/08 04:41:27;;;;;;;4.00;2.47;;;10.50;99.90;;;;;;5011462;28;20227;-65
2023/10/08 04:43:55;;;;;;;3.28;2.50;;;10.50;99.90;;;;;;5009804;28;20210;-66
2023/10/08 04:46:46;;;;;;;6.78;3.35;;;10.50;99.90;;;;;;5010883;28;20203;-66
2023/10/08 04:49:27;;;;;;;4.32;2.50;;;10.50;99.90;;;;;;5010826;28;20205;-66
2023/10/08 04:51:56;;;;;;;5.40;2.80;;;10.50;99.90;;;;;;5009990;28;20227;-66
2023/10/08 04:54:24;;;;;;;5.53;2.40;;;10.50;99.90;;;;;;5011031;28;20324;-66
2023/10/08 04:56:53;;;;;;;3.95;2.35;;;10.50;99.90;;;;;;5009419;28;20215;-66
2023/10/08 04:59:22;;;;;;;3.17;1.75;;;10.50;99.90;;;;;;5011174;28;20233;-65
2023/10/08 05:02:02;;;;;;;2.58;2.10;;;10.50;99.90;;;;;;5010058;28;20661;-65
2023/10/08 05:04:45;;;;;;;3.95;2.67;;;10.60;99.90;;;;;;5010951;28;21021;-65
2023/10/08 05:07:21;;;;;;;7.75;2.88;;;10.60;99.90;;;;;;5004347;28;20203;-65
2023/10/08 05:10:10;;;;;;;5.25;2.60;;;10.70;99.90;;;;;;5009929;28;20268;-65
2023/10/08 05:12:45;;;;;;;3.92;2.78;;;10.70;99.90;;;;;;5010178;28;20268;-65
2023/10/08 05:15:33;;;;;;;5.00;2.67;;;10.70;99.90;;;;;;5004805;28;20218;-65
2023/10/08 05:18:13;;;;;;;4.32;3.20;;;10.80;99.90;;;;;;5011379;28;20202;-65
2023/10/08 05:20:58;;;;;;;2.60;2.13;;;10.80;99.90;;;;;;5010373;28;20715;-66
2023/10/08 05:24:08;;;;;;;3.78;1.75;;;10.70;99.90;;;;;;5011301;28;20209;-67
2023/10/08 05:26:41;;;;;;;2.40;2.20;;;10.70;99.90;;;;;;5010563;28;20219;-66
2023/10/08 05:32:17;;;;;;;4.22;2.50;;;10.70;99.90;;;;;;5008759;28;20237;-66
2023/10/08 05:34:42;;;;;;;4.70;2.90;;;10.70;99.90;;;;;;5010610;28;20198;-66
2023/10/08 05:37:31;;;;;;;4.47;2.47;;;10.70;99.90;;;;;;5004156;28;20257;-66
2023/10/08 05:40:12;;;;;;;3.05;2.30;;;10.70;99.90;;;;;;5010468;28;20277;-66
2023/10/08 05:42:46;;;;;;;4.88;2.65;;;10.70;99.90;;;;;;5010767;28;20289;-66
2023/10/08 05:45:14;;;;;;;6.43;2.92;;;10.70;99.90;;;;;;5011130;28;20216;-66
2023/10/08 05:48:06;;;;;;;4.38;1.98;;;10.70;99.90;;;;;;5007599;28;20582;-66
2023/10/08 05:50:39;;;;;;;2.78;1.90;;;10.70;99.90;;;;;;5010954;28;20335;-66
2023/10/08 05:53:29;;;;;;;3.17;2.28;;;10.70;99.90;;;;;;5011433;28;20288;-66
2023/10/08 05:56:16;;;;;;;5.00;2.50;;;10.70;99.90;;;;;;5010771;28;20206;-66
2023/10/08 05:58:59;;;;;;;3.97;2.38;;;10.80;99.90;;;;;;5010915;28;20223;-66
2023/10/08 06:01:39;;;;;;;3.83;2.30;;;10.80;99.90;;;;;;5011492;28;20232;-66
2023/10/08 06:04:20;;;;;;;6.43;2.97;;;10.80;99.90;;;;;;5011493;28;20639;-66
2023/10/08 06:06:57;;;;;;;3.28;2.08;;;10.80;99.90;;;;;;5010812;28;20209;-66
2023/10/08 06:09:35;;;;;;;3.55;2.30;;;10.80;99.90;;;;;;5011795;28;20194;-66
2023/10/08 06:12:19;;;;;;;3.15;2.10;;;10.80;99.90;;;;;;4991895;28;20262;-66
2023/10/08 06:15:08;;;;;;;5.15;2.88;;;10.80;99.90;;;;;;4991546;28;20206;-66
2023/10/08 06:17:55;;;;;;;5.40;2.40;;;10.80;99.90;;;;;;4992023;28;20210;-66
2023/10/08 06:20:26;;;;;;;8.07;2.70;;;10.90;99.90;;;;;;4988100;28;20225;-66
2023/10/08 06:22:59;;;;;;;4.45;1.90;;;10.90;99.90;;;;;;4991736;28;20265;-66
2023/10/08 06:25:27;;;;;;;4.72;2.50;;;10.90;99.90;;;;;;4991520;28;20211;-66
2023/10/08 06:27:58;;;;;;;4.75;2.67;;;11.00;99.90;;;;;;4991317;28;20231;-66
2023/10/08 06:30:28;;;;;;;4.25;3.00;;;11.00;99.90;;;;;;4991823;28;20257;-66
2023/10/08 06:32:56;;;;;;;3.50;2.53;;;11.20;99.90;;;;;;4991372;28;20223;-66
2023/10/08 06:35:25;;;;;;;6.88;3.03;;;11.30;99.90;;;;;;4990254;28;20586;-66
2023/10/08 06:37:54;;;;;;;4.85;3.13;;;11.50;99.90;;;;;;4991067;28;20680;-66
2023/10/08 06:43:14;;;;;;;4.03;2.33;;;11.80;99.90;;;;;;4985471;28;20258;-66
2023/10/08 06:45:41;;;;;;;7.07;2.65;;;12.00;99.90;;;;;;4991317;28;20463;-66
2023/10/08 06:48:08;;;;;;;4.13;2.92;;;12.20;99.90;;;;;;4993127;28;20206;-66
2023/10/08 06:50:36;;;;;;;4.45;2.30;;;12.30;99.90;;;;;;4991798;28;20219;-66
2023/10/08 06:53:07;;;;;;;2.80;1.90;;;12.50;99.90;;;;;;4991459;28;20273;-66
2023/10/08 06:55:35;;;;;;;4.10;2.10;;;12.70;99.90;;;;;;4990507;28;20224;-66
2023/10/08 06:58:05;;;;;;;2.63;1.87;;;12.80;99.90;;;;;;4991252;28;20466;-66
2023/10/08 07:00:39;;;;;;;3.55;1.95;;;12.90;99.90;;;;;;4991350;28;20489;-66
2023/10/08 07:03:07;;;;;;;3.95;2.20;;;13.00;99.90;;;;;;4991026;28;20306;-66
2023/10/08 07:05:36;;;;;;;4.47;1.97;;;13.20;99.90;;;;;;4991213;28;20284;-66
2023/10/08 07:08:06;;;;;;;4.50;2.70;;;13.30;99.90;;;;;;4990440;28;20521;-66
2023/10/08 07:10:34;;;;;;;2.90;1.97;;;13.40;99.90;;;;;;4991572;28;20466;-66
2023/10/08 07:13:02;;;;;;;5.23;2.40;;;13.50;99.90;;;;;;4991256;28;20842;-66
2023/10/08 07:15:29;;;;;;;3.57;2.57;;;13.70;99.90;;;;;;4990773;28;20467;-66
2023/10/08 07:18:07;;;;;;;2.53;2.07;;;13.90;99.90;;;;;;4990891;28;20504;-66
2023/10/08 07:20:38;;;;;;;3.03;2.57;;;14.10;99.90;;;;;;4991193;28;20494;-66
2023/10/08 07:23:09;;;;;;;3.77;2.40;;;14.30;99.90;;;;;;4990432;28;20481;-66
2023/10/08 07:25:38;;;;;;;2.80;2.03;;;14.50;99.90;;;;;;4991035;28;20464;-66
2023/10/08 07:28:06;;;;;;;3.50;2.60;;;14.70;99.90;;;;;;4990444;28;20467;-66
2023/10/08 07:30:39;;;;;;;4.60;2.47;;;14.90;99.90;;;;;;4991389;28;20498;-66
2023/10/08 07:33:10;;;;;;;6.77;2.30;;;15.10;99.90;;;;;;4990095;28;20468;-66
2023/10/08 07:35:41;;;;;;;2.83;2.10;;;15.30;99.90;;;;;;4990858;28;20460;-66
2023/10/08 07:38:09;;;;;;;5.87;2.30;;;15.40;99.90;;;;;;4990424;28;20536;-66
2023/10/08 07:40:37;;;;;;;3.40;2.47;;;15.50;99.90;;;;;;4991054;28;20493;-66
2023/10/08 07:43:08;;;;;;;4.90;2.50;;;15.60;99.90;;;;;;4989998;28;20470;-66
2023/10/08 07:45:35;;;;;;;4.13;2.30;;;15.70;99.90;;;;;;4990588;28;20956;-66
2023/10/08 07:48:06;;;;;;;4.10;2.20;;;15.80;99.90;;;;;;4992066;28;20461;-66
2023/10/08 07:50:37;;;;;;;4.80;2.60;;;15.80;99.90;;;;;;4991235;28;21021;-66
2023/10/08 07:53:04;;;;;;;4.53;2.00;;;15.80;99.90;;;;;;4989658;28;20523;-66
2023/10/08 07:55:32;;;;;;;3.47;2.60;;;15.80;99.90;;;;;;4993738;28;20473;-66
2023/10/08 07:57:59;;;;;;;2.57;2.10;;;15.90;99.90;;;;;;4994156;28;20551;-66
2023/10/08 08:00:30;;;;;;;3.57;2.27;;;16.00;99.90;;;;;;4994513;28;20488;-66
2023/10/08 08:02:57;;;;;;;3.90;2.40;;;16.10;99.90;;;;;;4993923;28;20458;-66
2023/10/08 08:05:25;;;;;;;3.30;2.00;;;16.10;99.90;;;;;;4994165;28;20466;-66
2023/10/08 08:07:54;;;;;;;3.00;2.47;;;16.30;99.90;;;;;;4993978;28;20469;-66
2023/10/08 08:10:23;;;;;;;2.80;1.93;;;16.40;99.90;;;;;;4994255;28;20469;-66
2023/10/08 08:12:51;;;;;;;6.07;2.30;;;16.50;99.90;;;;;;4993965;28;20476;-66
2023/10/08 08:15:18;;;;;;;3.07;2.17;;;16.60;99.90;;;;;;4993792;28;20474;-66
2023/10/08 08:17:47;;;;;;;4.27;2.30;;;16.60;99.90;;;;;;4994094;28;20468;-66
2023/10/08 08:20:22;;;;;;;3.83;2.50;;;16.60;99.90;;;;;;4993716;28;20485;-66
2023/10/08 08:22:53;;;;;;;4.27;2.63;;;16.60;99.90;;;;;;4993842;28;20472;-66
2023/10/08 08:25:33;;;;;;;7.60;2.10;;;16.60;99.90;;;;;;4990807;28;20474;-66
2023/10/08 08:28:00;;;;;;;4.00;2.17;;;16.60;99.90;;;;;;4993784;28;20814;-66
2023/10/08 08:30:27;;;;;;;4.60;2.13;;;16.70;99.90;;;;;;4993731;28;20469;-66
2023/10/08 08:32:56;;;;;;;5.20;2.67;;;16.80;99.90;;;;;;4993327;28;20963;-66
2023/10/08 08:35:23;;;;;;;3.17;2.33;;;17.00;99.90;;;;;;4993632;28;20527;-66
2023/10/08 08:37:50;;;;;;;5.93;2.43;;;17.30;99.90;;;;;;4993528;28;20466;-66
2023/10/08 08:40:19;;;;;;;3.53;2.63;;;17.70;99.90;;;;;;4990986;28;20840;-67
2023/10/08 08:42:50;;;;;;;4.53;2.10;;;18.10;99.90;;;;;;4993826;28;20463;-66
2023/10/08 08:45:20;;;;;;;3.50;2.43;;;18.40;99.90;;;;;;4992966;28;20473;-66
2023/10/08 08:47:47;;;;;;;3.57;2.03;;;18.50;99.90;;;;;;4993579;28;20478;-66
2023/10/08 08:50:14;;;;;;;2.77;2.20;;;18.60;99.90;;;;;;4993306;28;20467;-66
2023/10/08 08:52:41;;;;;;;3.30;2.30;;;18.70;99.90;;;;;;4993448;28;20466;-66
2023/10/08 08:55:14;;;;;;;3.80;2.53;;;18.90;99.90;;;;;;4993035;28;20471;-66
2023/10/08 08:57:43;;;;;;;3.00;2.07;;;18.90;99.90;;;;;;4993342;28;20853;-66
2023/10/08 09:00:13;;;;;;;2.70;2.37;;;19.10;99.90;;;;;;4992828;28;20837;-66
2023/10/08 09:02:40;;;;;;;3.60;2.13;;;19.20;99.90;;;;;;4993312;28;20499;-66
2023/10/08 09:05:23;;;;;;;5.53;1.90;;;19.50;99.90;;;;;;4992795;28;20469;-66
2023/10/08 09:07:58;;;;;;;3.00;2.70;;;19.50;99.90;;;;;;4993436;28;20516;-66
2023/10/08 09:10:28;;;;;;;5.70;3.30;;;19.40;99.90;;;;;;4997012;28;20553;-66
2023/10/08 09:12:57;;;;;;;3.33;2.43;;;19.30;99.90;;;;;;4993112;28;20466;-66
2023/10/08 09:15:25;;;;;;;5.97;2.97;;;19.20;99.90;;;;;;4993593;28;20890;-67
2023/10/08 09:17:53;;;;;;;3.53;2.37;;;19.00;99.90;;;;;;4999413;28;20466;-66
2023/10/08 09:20:21;;;;;;;5.23;2.70;;;19.00;99.90;;;;;;4997593;28;20465;-66
2023/10/08 09:23:07;;;;;;;3.77;2.40;;;19.00;99.90;;;;;;4999131;28;20472;-66
2023/10/08 09:25:34;;;;;;;3.10;2.17;;;19.10;99.90;;;;;;5001138;28;20469;-66
2023/10/08 09:28:01;;;;;;;5.60;2.93;;;19.10;99.90;;;;;;4999580;28;20465;-66
2023/10/08 09:30:31;;;;;;;4.70;2.40;;;19.30;99.90;;;;;;4997861;28;20460;-66
2023/10/08 09:32:57;;;;;;;3.60;2.60;;;19.60;99.90;;;;;;4999956;28;20480;-66
2023/10/08 09:35:26;;;;;;;5.50;2.10;;;19.90;99.90;;;;;;4997597;28;20535;-66
2023/10/08 09:37:55;;;;;;;4.30;2.30;;;20.20;99.90;;;;;;4999672;28;20469;-66
2023/10/08 09:40:22;;;;;;;5.00;2.50;;;20.30;99.90;;;;;;4997702;28;20468;-66
2023/10/08 09:42:49;;;;;;;6.00;2.97;;;20.30;99.90;;;;;;4999196;28;20957;-66
2023/10/08 09:45:16;;;;;;;9.00;2.63;;;20.20;99.90;;;;;;4997978;28;20472;-66
2023/10/08 09:47:51;;;;;;;2.93;2.10;;;20.20;99.90;;;;;;4998210;28;20472;-66
2023/10/08 09:50:24;;;;;;;11.60;3.00;;;20.20;99.90;;;;;;4998585;28;20460;-66
2023/10/08 09:52:57;;;;;;;3.70;2.43;;;20.20;99.90;;;;;;4999602;28;20469;-65
2023/10/08 09:55:24;;;;;;;3.90;2.50;;;20.20;99.90;;;;;;4997813;28;20525;-64
2023/10/08 09:57:51;;;;;;;4.33;2.17;;;20.10;99.90;;;;;;4999941;28;20843;-64
2023/10/08 10:00:30;;;;;;;3.80;2.10;;;20.10;99.90;;;;;;4999312;28;20471;-65
2023/10/08 10:03:01;;;;;;;2.40;1.97;;;20.00;99.90;;;;;;5004032;28;20459;-65
2023/10/08 10:05:31;;;;;;;4.63;2.87;;;20.00;99.90;;;;;;5009699;28;20667;-65
2023/10/08 10:07:58;;;;;;;2.80;2.10;;;19.90;99.90;;;;;;5000304;28;20997;-64
2023/10/08 10:10:30;;;;;;;5.27;3.10;;;19.90;99.90;;;;;;4997964;28;20469;-65
2023/10/08 10:13:00;;;;;;;3.20;2.00;;;19.80;99.90;;;;;;5000285;28;20989;-67
2023/10/08 10:15:30;;;;;;;6.07;3.00;;;19.80;99.90;;;;;;5002643;28;20468;-64
2023/10/08 10:18:08;;;;;;;3.87;2.80;;;19.80;99.90;;;;;;4999666;28;20471;-64
2023/10/08 10:20:35;;;;;;;4.00;2.40;;;19.70;99.90;;;;;;5001810;28;20965;-66
2023/10/08 10:23:39;;;;;;;4.13;2.63;;;19.70;99.90;;;;;;5000508;28;20471;-67
2023/10/08 10:26:22;;;;;;;4.03;2.37;;;19.80;99.90;;;;;;4997365;28;20513;-67
2023/10/08 10:29:26;;;;;;;3.13;2.27;;;19.90;99.90;;;;;;4999665;28;20957;-65
2023/10/08 10:31:54;;;;;;;4.17;2.20;;;19.90;99.90;;;;;;5001394;28;20839;-65
2023/10/08 10:34:24;;;;;;;5.77;2.70;;;20.00;99.90;;;;;;4998768;28;20499;-65
2023/10/08 10:36:55;;;;;;;4.57;2.47;;;20.10;99.90;;;;;;4999760;28;20460;-65
2023/10/08 10:39:27;;;;;;;3.83;2.60;;;20.10;99.90;;;;;;4998840;28;20460;-65
2023/10/08 10:41:57;;;;;;;4.37;2.77;;;20.20;99.90;;;;;;5000466;28;20552;-65
2023/10/08 10:44:24;;;;;;;4.50;2.97;;;20.20;99.90;;;;;;4998622;28;20548;-65
2023/10/08 10:46:51;;;;;;;3.40;2.20;;;20.30;99.90;;;;;;4999656;28;20477;-65
2023/10/08 10:49:21;;;;;;;4.73;2.90;;;20.40;99.90;;;;;;4999917;28;20493;-65
2023/10/08 10:51:57;;;;;;;4.73;2.70;;;20.40;99.90;;;;;;4999427;28;20486;-65
2023/10/08 10:54:23;;;;;;;4.80;2.87;;;20.60;99.90;;;;;;4999149;28;20959;-65
2023/10/08 10:57:03;;;;;;;4.00;2.40;;;20.80;99.90;;;;;;4999866;28;20887;-65
2023/10/08 10:59:36;;;;;;;4.60;2.77;;;21.10;99.90;;;;;;5003085;28;20493;-65
2023/10/08 11:02:07;;;;;;;4.60;2.77;;;21.50;99.90;;;;;;4998136;28;20499;-65
2023/10/08 11:04:33;;;;;;;5.00;3.10;;;21.90;99.90;;;;;;4998977;28;20463;-66
2023/10/08 11:07:06;;;;;;;5.20;2.53;;;22.20;99.90;;;;;;5001295;28;20895;-65
2023/10/08 11:09:38;;;;;;;4.83;2.70;;;22.40;99.90;;;;;;4998741;28;20498;-65
2023/10/08 11:12:10;;;;;;;5.47;3.00;;;22.50;99.90;;;;;;4998674;28;21276;-65
2023/10/08 11:14:41;;;;;;;4.40;2.63;;;22.60;99.90;;;;;;5002271;28;20970;-65
2023/10/08 11:17:11;;;;;;;3.37;2.27;;;22.60;99.90;;;;;;4998278;28;20560;-65
2023/10/08 11:19:38;;;;;;;4.23;3.00;;;22.50;99.90;;;;;;4998772;28;20478;-66
2023/10/08 11:22:07;;;;;;;3.80;2.93;;;22.40;99.90;;;;;;5002014;28;20489;-65
2023/10/08 11:24:34;;;;;;;5.33;2.93;;;22.30;99.90;;;;;;5003314;28;20462;-65
2023/10/08 11:27:15;;;;;;;3.63;2.63;;;22.20;99.90;;;;;;5001846;28;20470;-66
2023/10/08 11:29:43;;;;;;;4.37;2.70;;;22.20;99.90;;;;;;5001301;28;20462;-66
2023/10/08 11:32:12;;;;;;;3.40;2.43;;;22.20;99.90;;;;;;5005076;28;21028;-65
2023/10/08 11:34:39;;;;;;;3.90;2.37;;;22.20;99.90;;;;;;5002865;28;20882;-65
2023/10/08 11:37:19;;;;;;;3.00;2.63;;;22.20;99.90;;;;;;5005695;28;20474;-65
2023/10/08 11:39:46;;;;;;;6.97;2.63;;;22.20;99.90;;;;;;5006268;28;20466;-65
2023/10/08 11:42:39;;;;;;;5.03;2.90;;;22.10;99.90;;;;;;5005281;28;20512;-65
2023/10/08 11:45:18;;;;;;;8.20;2.67;;;22.10;99.90;;;;;;5002513;28;20460;-65
2023/10/08 11:47:48;;;;;;;4.23;3.00;;;22.00;99.90;;;;;;5004089;28;20458;-65
2023/10/08 11:50:19;;;;;;;6.20;2.53;;;21.90;99.90;;;;;;5005573;28;20891;-65
2023/10/08 11:52:47;;;;;;;4.87;2.70;;;22.00;99.90;;;;;;5003768;28;21041;-65
2023/10/08 11:55:18;;;;;;;4.27;2.33;;;22.10;99.90;;;;;;5005181;28;20464;-65
2023/10/08 11:57:48;;;;;;;3.23;2.30;;;22.20;99.90;;;;;;5003698;28;20932;-66
2023/10/08 12:00:24;;;;;;;7.53;3.37;;;22.30;99.90;;;;;;5005317;28;20457;-65
2023/10/08 12:02:54;;;;;;;5.40;2.70;;;22.50;99.90;;;;;;5004707;28;20581;-65
2023/10/08 12:05:23;;;;;;;4.43;2.73;;;22.70;99.90;;;;;;5004447;28;20465;-65
2023/10/08 12:07:52;;;;;;;4.20;2.80;;;22.70;99.90;;;;;;5002732;28;21047;-65
2023/10/08 12:10:22;;;;;;;5.30;2.93;;;22.70;99.90;;;;;;5007944;28;20552;-65
2023/10/08 12:12:52;;;;;;;3.67;2.53;;;22.70;99.90;;;;;;5004542;28;20522;-65
2023/10/08 12:15:20;;;;;;;4.20;2.80;;;22.60;99.90;;;;;;5004090;28;20871;-65
2023/10/08 12:18:08;;;;;;;5.13;3.37;;;22.60;99.90;;;;;;5003624;28;20525;-65
2023/10/08 12:20:37;;;;;;;5.50;2.40;;;22.80;99.90;;;;;;5003122;28;20490;-65
2023/10/08 12:23:05;;;;;;;2.40;2.20;;;23.20;99.90;;;;;;5001584;28;20485;-65
2023/10/08 12:25:33;;;;;;;4.20;2.43;;;23.50;99.90;;;;;;5001788;28;20548;-65
2023/10/08 12:28:02;;;;;;;4.00;2.33;;;23.80;99.90;;;;;;5005845;28;20760;-65
2023/10/08 12:30:31;;;;;;;3.57;2.73;;;24.10;99.90;;;;;;5003902;28;20462;-65
2023/10/08 12:32:58;;;;;;;4.60;2.50;;;24.30;99.90;;;;;;5004783;28;20568;-65
2023/10/08 12:35:25;;;;;;;3.17;2.33;;;24.40;99.90;;;;;;5011968;28;21006;-65
2023/10/08 12:37:53;;;;;;;3.83;2.50;;;24.60;99.90;;;;;;5006384;28;20886;-66
2023/10/08 12:40:23;;;;;;;5.00;2.90;;;24.80;99.90;;;;;;5004645;28;20481;-66
2023/10/08 12:42:50;;;;;;;4.50;2.00;;;24.90;99.90;;;;;;5011400;28;20489;-66
2023/10/08 12:45:20;;;;;;;6.37;3.43;;;25.10;99.90;;;;;;5004609;28;20980;-66
2023/10/08 12:47:49;;;;;;;3.67;2.87;;;25.20;99.90;;;;;;5007925;28;20473;-66
2023/10/08 12:50:16;;;;;;;3.50;2.87;;;25.30;99.90;;;;;;5002325;28;20462;-66
2023/10/08 12:52:50;;;;;;;5.03;2.77;;;25.40;99.90;;;;;;5007083;28;20471;-66
2023/10/08 12:55:23;;;;;;;4.10;2.30;;;25.50;99.90;;;;;;5003938;28;20483;-66
2023/10/08 12:57:55;;;;;;;5.47;2.73;;;25.50;99.90;;;;;;5007010;28;20493;-66
2023/10/08 13:00:23;;;;;;;5.00;3.07;;;25.60;99.90;;;;;;5005519;28;20487;-66
2023/10/08 13:02:53;;;;;;;5.57;2.53;;;25.60;99.90;;;;;;5005193;28;20505;-66
2023/10/08 13:05:26;;;;;;;3.33;2.60;;;25.80;99.90;;;;;;5005874;28;20466;-66
2023/10/08 13:07:54;;;;;;;5.67;3.00;;;25.80;99.90;;;;;;5005686;28;20560;-66
2023/10/08 13:10:22;;;;;;;3.73;2.67;;;25.90;99.90;;;;;;5006090;28;20461;-66
2023/10/08 13:12:49;;;;;;;3.73;2.43;;;26.00;99.90;;;;;;5005718;28;20459;-66
2023/10/08 13:15:16;;;;;;;3.10;2.20;;;26.10;99.90;;;;;;5007133;28;20469;-66
2023/10/08 13:17:45;;;;;;;5.13;2.90;;;26.10;99.90;;;;;;5007545;28;20469;-65
2023/10/08 13:20:12;;;;;;;10.90;2.90;;;26.10;99.90;;;;;;5007618;28;20457;-66
2023/10/08 13:22:39;;;;;;;9.63;3.07;;;26.10;99.90;;;;;;5005130;28;20486;-65
2023/10/08 13:25:08;;;;;;;3.80;2.47;;;26.10;99.90;;;;;;5007515;28;20461;-66
2023/10/08 13:27:39;;;;;;;5.00;2.63;;;26.20;99.90;;;;;;5005084;28;20552;-66
2023/10/08 13:30:08;;;;;;;5.13;2.93;;;26.20;99.90;;;;;;5002180;28;20464;-66
2023/10/08 13:32:36;;;;;;;10.37;3.23;;;26.30;99.90;;;;;;5005204;28;20537;-66
2023/10/08 13:35:04;;;;;;;3.33;2.50;;;26.20;99.90;;;;;;5007379;28;20469;-66
2023/10/08 13:37:33;;;;;;;5.83;3.07;;;26.30;99.90;;;;;;5005520;28;20809;-65
2023/10/08 13:40:00;;;;;;;4.27;2.53;;;26.30;99.90;;;;;;5007040;28;20973;-66
2023/10/08 13:42:27;;;;;;;4.70;2.60;;;26.30;99.90;;;;;;5006273;28;20863;-65
2023/10/08 13:44:57;;;;;;;6.03;2.93;;;26.30;99.70;;;;;;5006124;28;20466;-65
2023/10/08 13:47:28;;;;;;;3.40;2.37;;;26.30;99.90;;;;;;5006257;28;20485;-65
2023/10/08 13:49:57;;;;;;;4.60;2.60;;;26.30;99.90;;;;;;4986985;28;20952;-65
2023/10/08 13:52:26;;;;;;;3.57;2.30;;;26.30;99.40;;;;;;4992136;28;20565;-65
2023/10/08 13:54:53;;;;;;;6.83;2.77;;;26.40;99.90;;;;;;4992773;28;20466;-65
2023/10/08 13:57:20;;;;;;;4.43;2.30;;;26.30;99.90;;;;;;4992395;28;20470;-66
2023/10/08 13:59:47;;;;;;;5.30;3.00;;;26.30;99.90;;;;;;4998062;28;20549;-65
2023/10/08 14:02:15;;;;;;;4.90;2.50;;;26.20;99.90;;;;;;4992572;28;20494;-66
2023/10/08 14:04:44;;;;;;;3.80;2.60;;;26.20;99.90;;;;;;4992437;28;20470;-65
2023/10/08 14:07:11;;;;;;;7.33;2.90;;;26.10;99.90;;;;;;4992236;28;20467;-65
2023/10/08 14:09:41;;;;;;;5.90;2.63;;;26.10;99.90;;;;;;4992666;28;20521;-65
2023/10/08 14:12:10;;;;;;;7.17;3.10;;;26.10;99.90;;;;;;4992504;28;20486;-65
2023/10/08 14:14:40;;;;;;;2.90;2.43;;;26.10;99.90;;;;;;4992728;28;20466;-65
2023/10/08 14:17:14;;;;;;;6.90;2.43;;;26.00;99.90;;;;;;4986569;28;20454;-65
2023/10/08 14:19:51;;;;;;;4.87;2.97;;;26.00;99.90;;;;;;4992501;28;20465;-65
2023/10/08 14:22:21;;;;;;;4.27;2.73;;;26.00;99.90;;;;;;4992495;28;20496;-65
2023/10/08 14:24:58;;;;;;;5.83;2.70;;;25.80;99.60;;;;;;5000052;28;20462;-65
2023/10/08 14:27:31;;;;;;;5.60;3.00;;;25.80;99.90;;;;;;4991773;28;20462;-65
2023/10/08 14:30:00;;;;;;;4.77;2.80;;;25.70;99.90;;;;;;4992551;28;20458;-65
2023/10/08 14:32:27;;;;;;;4.70;2.60;;;25.70;99.90;;;;;;4992507;28;20520;-65
2023/10/08 14:43:11;;;;;;;5.20;3.03;;;25.40;99.50;;;;;;4998268;28;20473;-65
2023/10/08 14:45:40;;;;;;;4.53;2.33;;;25.30;99.90;;;;;;5005748;28;20544;-66
2023/10/08 14:48:11;;;;;;;7.20;3.50;;;25.20;99.90;;;;;;5001773;28;21059;-67
2023/10/08 14:50:39;;;;;;;4.47;2.60;;;25.10;99.90;;;;;;5006001;28;20481;-66
2023/10/08 14:53:05;;;;;;;6.60;3.47;;;25.00;99.90;;;;;;5001546;28;20453;-66
2023/10/08 14:55:34;;;;;;;6.50;2.67;;;24.90;99.90;;;;;;5006294;28;20469;-67
2023/10/08 14:58:06;;;;;;;7.37;2.40;;;24.70;99.90;;;;;;5007118;28;20968;-66
2023/10/08 15:00:35;;;;;;;4.77;2.90;;;24.40;99.90;;;;;;5006684;28;20992;-66
2023/10/08 15:03:03;;;;;;;6.17;3.10;;;24.00;99.90;;;;;;5007882;28;20481;-66
2023/10/08 15:05:31;;;;;;;5.97;3.30;;;23.90;99.90;;;;;;5011034;28;20520;-66
2023/10/08 15:08:00;;;;;;;4.37;2.53;;;23.80;99.90;;;;;;5008558;28;20963;-66
2023/10/08 15:10:26;;;;;;;8.17;3.30;;;23.80;99.90;;;;;;5010012;28;20523;-66
2023/10/08 15:12:53;;;;;;;4.67;2.90;;;23.80;99.90;;;;;;5011880;28;20458;-66
2023/10/08 15:15:24;;;;;;;5.93;3.10;;;23.70;99.90;;;;;;5011433;28;20468;-67
2023/10/08 15:17:51;;;;;;;4.03;2.77;;;23.60;99.90;;;;;;5009975;28;21017;-66
2023/10/08 15:20:19;;;;;;;6.10;2.77;;;23.60;99.90;;;;;;5011769;28;20465;-67
2023/10/08 15:22:49;;;;;;;4.93;2.70;;;23.50;99.90;;;;;;5010226;28;20536;-66
2023/10/08 15:25:19;;;;;;;4.10;2.43;;;23.50;99.90;;;;;;5011462;28;20457;-66
2023/10/08 15:27:47;;;;;;;5.27;3.40;;;23.50;99.90;;;;;;5010156;28;20485;-66
2023/10/08 15:30:19;;;;;;;2.87;2.00;;;23.30;99.90;;;;;;5012140;28;20465;-66
2023/10/08 15:32:47;;;;;;;6.27;2.80;;;23.30;99.90;;;;;;5010517;28;20515;-67
2023/10/08 15:35:19;;;;;;;5.53;2.83;;;23.20;99.90;;;;;;5011601;28;20469;-66
2023/10/08 15:37:46;;;;;;;3.70;2.47;;;23.10;99.90;;;;;;5010717;28;20897;-66
2023/10/08 15:40:18;;;;;;;4.80;2.90;;;22.90;99.90;;;;;;5011934;28;20457;-66
2023/10/08 15:42:51;;;;;;;5.50;2.73;;;22.80;99.90;;;;;;5010793;28;20572;-66
2023/10/08 15:45:18;;;;;;;9.63;3.03;;;22.60;99.90;;;;;;5011706;28;20470;-67
2023/10/08 15:47:44;;;;;;;7.20;3.57;;;22.60;99.90;;;;;;5010747;28;20466;-66
2023/10/08 15:50:11;;;;;;;4.27;2.77;;;22.50;99.90;;;;;;5012129;28;20465;-67
2023/10/08 15:52:39;;;;;;;7.30;3.07;;;22.50;99.90;;;;;;5011115;28;20559;-66
2023/10/08 15:55:07;;;;;;;4.90;2.40;;;22.50;99.90;;;;;;5005305;28;20493;-66
2023/10/08 15:57:34;;;;;;;3.50;3.13;;;22.40;99.90;;;;;;5011569;28;20470;-67
2023/10/08 16:00:03;;;;;;;6.03;3.27;;;22.40;99.90;;;;;;5011816;28;21074;-66
2023/10/08 16:02:30;;;;;;;4.23;2.30;;;22.40;99.90;;;;;;5012238;28;20500;-67
2023/10/08 16:04:57;;;;;;;7.77;2.63;;;22.30;99.90;;;;;;5011109;28;20494;-66
2023/10/08 16:07:24;;;;;;;7.67;2.73;;;22.20;99.90;;;;;;5011732;28;20462;-66
2023/10/08 16:09:50;;;;;;;8.77;3.20;;;22.20;99.90;;;;;;5011225;28;20461;-66
2023/10/08 16:12:17;;;;;;;6.27;3.40;;;22.10;99.90;;;;;;5012198;28;20481;-66
2023/10/08 16:14:44;;;;;;;8.70;3.33;;;22.00;99.90;;;;;;5010245;28;20462;-66
2023/10/08 16:17:15;;;;;;;6.13;3.30;;;21.90;99.90;;;;;;5011793;28;20457;-66
2023/10/08 16:19:42;;;;;;;6.30;3.07;;;21.70;99.90;;;;;;5011737;28;20468;-66
2023/10/08 16:22:10;;;;;;;4.80;2.90;;;21.60;99.90;;;;;;5012266;28;20860;-66
2023/10/08 16:24:37;;;;;;;5.30;3.30;;;21.40;99.90;;;;;;5011955;28;20833;-66
2023/10/08 16:27:04;;;;;;;5.83;2.80;;;21.30;99.90;;;;;;4999316;28;20465;-66
2023/10/08 16:29:31;;;;;;;3.53;2.80;;;21.20;99.90;;;;;;4999250;28;20846;-66
2023/10/08 16:31:58;;;;;;;4.70;2.77;;;21.00;99.90;;;;;;5001809;28;20482;-66
2023/10/08 16:34:27;;;;;;;5.33;3.00;;;20.80;99.90;;;;;;5001549;28;20473;-66
2023/10/08 16:36:54;;;;;;;5.90;4.10;;;20.70;99.90;;;;;;5004186;28;20894;-66
2023/10/08 16:39:24;;;;;;;5.27;2.93;;;20.50;99.90;;;;;;5012527;28;20469;-66
2023/10/08 16:41:52;;;;;;;4.20;2.83;;;20.30;99.90;;;;;;5012343;28;20489;-66
2023/10/08 16:44:18;;;;;;;4.70;2.90;;;20.20;99.90;;;;;;5012034;28;21067;-66
2023/10/08 16:46:45;;;;;;;5.10;3.23;;;20.00;99.90;;;;;;5011907;28;20476;-66
2023/10/08 16:49:12;;;;;;;5.00;2.53;;;19.80;99.90;;;;;;5012470;28;20877;-66
2023/10/08 16:51:40;;;;;;;5.07;3.33;;;19.70;99.90;;;;;;5012243;28;20483;-66